Time;durP1;ratioP1;P1;durP2;ratioP2;P2;SDS_P1;SDS_P2;PMS_P1;PMS_P2;Temp;Humidity;BMP_temperature;BMP_pressure;BME280_temperature;BME280_humidity;BME280_pressure;Samples;Min_cycle;Max_cycle;Signal;HPM_P1;HPM_P2
2022/06/13 00:00:11;;;;;;;7.47;5.00;;;19.60;99.90;;;;;;4974780;28;20057;-73
2022/06/13 00:02:37;;;;;;;7.40;4.40;;;19.50;99.90;;;;;;4974552;28;20491;-73
2022/06/13 00:05:05;;;;;;;6.75;4.63;;;19.60;99.90;;;;;;4974116;28;20023;-73
2022/06/13 00:07:31;;;;;;;13.82;4.95;;;19.60;99.90;;;;;;4974375;28;20069;-72
2022/06/13 00:09:57;;;;;;;7.18;4.85;;;19.60;99.90;;;;;;4974452;28;20046;-73
2022/06/13 00:12:24;;;;;;;6.93;4.50;;;19.60;99.90;;;;;;4972424;28;20039;-73
2022/06/13 00:14:50;;;;;;;9.57;4.85;;;19.70;99.90;;;;;;4974275;28;20027;-73
2022/06/13 00:17:16;;;;;;;9.52;5.50;;;19.70;99.90;;;;;;4974308;28;20031;-73
2022/06/13 00:19:42;;;;;;;7.60;4.15;;;19.60;99.90;;;;;;4974400;28;20465;-73
2022/06/13 00:22:08;;;;;;;7.82;4.93;;;19.60;99.90;;;;;;4973872;28;20073;-74
2022/06/13 00:24:34;;;;;;;7.13;4.50;;;19.60;99.90;;;;;;4973793;28;20031;-73
2022/06/13 00:27:01;;;;;;;6.47;4.05;;;19.60;99.90;;;;;;4974100;28;20022;-70
2022/06/13 00:29:26;;;;;;;6.82;3.83;;;19.60;99.90;;;;;;4970213;28;20026;-73
2022/06/13 00:31:52;;;;;;;7.65;4.28;;;19.60;99.90;;;;;;4973835;28;20026;-72
2022/06/13 00:34:18;;;;;;;8.43;5.35;;;19.60;99.90;;;;;;4957765;28;20109;-73
2022/06/13 00:36:44;;;;;;;6.78;4.28;;;19.70;99.90;;;;;;4975330;28;20035;-73
2022/06/13 00:39:10;;;;;;;6.05;4.00;;;19.70;99.90;;;;;;4974498;28;20050;-73
2022/06/13 00:41:39;;;;;;;6.13;3.92;;;19.70;99.90;;;;;;4971804;28;20424;-71
2022/06/13 00:44:19;;;;;;;5.32;3.47;;;19.70;99.90;;;;;;4972801;28;20050;-73
2022/06/13 00:46:45;;;;;;;8.45;4.03;;;19.70;99.90;;;;;;4962627;28;20041;-72
2022/06/13 00:49:19;;;;;;;6.20;3.75;;;19.70;99.90;;;;;;4969384;28;20113;-67
2022/06/13 00:52:00;;;;;;;9.13;4.18;;;19.70;99.90;;;;;;4974417;28;20034;-73
2022/06/13 00:54:26;;;;;;;6.43;4.28;;;19.70;99.90;;;;;;4972970;28;20038;-69
2022/06/13 00:56:52;;;;;;;7.05;4.30;;;19.70;99.90;;;;;;4959427;28;20022;-72
2022/06/13 00:59:21;;;;;;;8.80;4.00;;;19.70;99.90;;;;;;4981353;28;20070;-74
2022/06/13 01:01:47;;;;;;;7.88;4.32;;;19.70;99.90;;;;;;4979439;28;20019;-73
2022/06/13 01:04:13;;;;;;;6.72;4.10;;;19.70;99.90;;;;;;4974649;28;20445;-73
2022/06/13 01:06:47;;;;;;;6.80;4.35;;;19.60;99.90;;;;;;4968560;28;20023;-73
2022/06/13 01:09:15;;;;;;;6.32;3.88;;;19.50;99.90;;;;;;4972389;28;20062;-73
2022/06/13 01:11:47;;;;;;;7.25;3.75;;;19.40;99.90;;;;;;4972044;28;20533;-72
2022/06/13 01:14:31;;;;;;;;;;;19.40;99.90;;;;;;4973834;28;20041;-72
2022/06/13 01:17:17;;;;;;;5.47;4.10;;;19.30;99.90;;;;;;4974016;28;19924;-73
2022/06/13 01:20:19;;;;;;;5.43;3.95;;;19.20;99.90;;;;;;4952540;28;20039;-73
2022/06/13 01:22:55;;;;;;;5.65;3.80;;;19.20;99.90;;;;;;4947082;29;20139;-74
2022/06/13 01:25:27;;;;;;;8.18;4.82;;;19.00;99.90;;;;;;4952314;29;20039;-73
2022/06/13 01:28:10;;;;;;;6.78;4.13;;;19.00;99.90;;;;;;4972076;28;20031;-73
2022/06/13 01:30:45;;;;;;;9.88;4.88;;;18.90;99.90;;;;;;4952555;28;20043;-73
2022/06/13 01:33:22;;;;;;;6.55;4.10;;;18.80;99.90;;;;;;4947730;29;20118;-71
2022/06/13 01:36:03;;;;;;;5.80;4.43;;;18.90;99.90;;;;;;4923718;29;20102;-73
2022/06/13 01:38:32;;;;;;;9.50;4.45;;;18.90;99.90;;;;;;4952149;28;20071;-73
2022/06/13 01:41:13;;;;;;;5.28;4.05;;;18.80;99.90;;;;;;4952599;29;20050;-74
2022/06/13 01:44:05;;;;;;;6.95;3.72;;;18.80;99.90;;;;;;4951658;29;20051;-73
2022/06/13 01:46:35;;;;;;;6.43;4.00;;;18.70;99.90;;;;;;4952212;29;20114;-70
2022/06/13 01:49:19;;;;;;;8.07;4.80;;;18.70;99.90;;;;;;4951874;29;20075;-73
2022/06/13 01:52:05;;;;;;;6.13;3.83;;;18.60;99.90;;;;;;4952481;29;20059;-72
2022/06/13 01:54:49;;;;;;;9.05;4.00;;;18.60;99.90;;;;;;4894781;29;20120;-70
2022/06/13 01:57:30;;;;;;;7.82;4.15;;;18.50;99.90;;;;;;4895372;29;20123;-73
2022/06/13 02:00:10;;;;;;;7.72;4.60;;;18.60;99.90;;;;;;4887319;29;20032;-73
2022/06/13 02:02:42;;;;;;;6.65;4.60;;;18.40;99.90;;;;;;4895228;29;20043;-73
2022/06/13 02:05:14;;;;;;;6.13;4.10;;;18.40;99.90;;;;;;4886775;29;20044;-73
2022/06/13 02:07:46;;;;;;;8.98;4.65;;;18.40;99.90;;;;;;4895292;29;20024;-73
2022/06/13 02:10:20;;;;;;;8.02;4.30;;;18.30;99.90;;;;;;4886060;29;20036;-74
2022/06/13 02:12:51;;;;;;;11.63;4.57;;;18.30;99.90;;;;;;4893188;29;20044;-73
2022/06/13 02:15:35;;;;;;;7.93;5.28;;;18.30;99.90;;;;;;4878103;29;20048;-73
2022/06/13 02:18:12;;;;;;;8.15;4.40;;;18.30;99.90;;;;;;4894710;29;20044;-73
2022/06/13 02:20:43;;;;;;;7.93;4.63;;;18.10;99.90;;;;;;4887922;29;20035;-72
2022/06/13 02:23:14;;;;;;;7.85;4.38;;;18.10;99.90;;;;;;4882927;29;20105;-71
2022/06/13 02:25:48;;;;;;;5.35;4.32;;;18.00;99.90;;;;;;4880785;29;20036;-72
2022/06/13 02:28:53;;;;;;;6.95;4.47;;;18.00;99.90;;;;;;4895021;29;20060;-73
2022/06/13 02:31:27;;;;;;;6.00;4.10;;;18.00;99.90;;;;;;4924227;28;20053;-74
2022/06/13 02:34:01;;;;;;;9.40;4.57;;;17.90;99.90;;;;;;4962303;28;20026;-73
2022/06/13 02:36:46;;;;;;;7.15;4.32;;;17.90;99.90;;;;;;4973263;28;20454;-73
2022/06/13 02:39:27;;;;;;;7.72;4.68;;;17.90;99.90;;;;;;4963962;28;20382;-73
2022/06/13 02:42:02;;;;;;;5.50;4.38;;;17.90;99.90;;;;;;4971443;28;20041;-73
2022/06/13 02:45:03;;;;;;;5.97;4.47;;;17.80;99.90;;;;;;4964923;28;20141;-73
2022/06/13 02:47:52;;;;;;;6.85;4.97;;;17.90;99.90;;;;;;4972795;28;20046;-64
2022/06/13 02:50:26;;;;;;;9.35;4.57;;;17.80;99.90;;;;;;4973231;28;20071;-74
2022/06/13 02:53:36;;;;;;;6.70;4.53;;;17.90;99.90;;;;;;4973301;28;20034;-73
2022/06/13 02:56:33;;;;;;;8.15;4.78;;;17.80;99.90;;;;;;4962563;28;20545;-73
2022/06/13 02:59:24;;;;;;;8.27;4.53;;;17.80;99.90;;;;;;4964751;28;20110;-73
2022/06/13 03:01:53;;;;;;;6.75;4.47;;;17.80;99.90;;;;;;4963884;28;20112;-72
2022/06/13 03:04:40;;;;;;;6.88;4.40;;;17.80;99.90;;;;;;4983844;28;20414;-73
2022/06/13 03:07:24;;;;;;;5.97;4.22;;;17.80;99.90;;;;;;4972871;28;20484;-74
2022/06/13 03:10:05;;;;;;;7.47;4.90;;;17.80;99.90;;;;;;4972594;28;20104;-73
2022/06/13 03:12:35;;;;;;;10.38;4.93;;;17.80;99.90;;;;;;4959175;28;20067;-63
2022/06/13 03:15:16;;;;;;;6.88;4.22;;;17.80;99.90;;;;;;4963386;28;20386;-72
2022/06/13 03:17:52;;;;;;;6.28;4.45;;;17.80;99.90;;;;;;4960513;28;20062;-74
2022/06/13 03:20:25;;;;;;;6.82;4.63;;;17.80;99.90;;;;;;4961457;28;20107;-72
2022/06/13 03:23:12;;;;;;;7.43;4.75;;;17.90;99.90;;;;;;4972967;28;20054;-73
2022/06/13 03:25:54;;;;;;;7.10;4.85;;;17.90;99.90;;;;;;4969686;28;20389;-73
2022/06/13 03:28:38;;;;;;;11.10;5.07;;;17.90;99.90;;;;;;4969236;28;20030;-73
2022/06/13 03:31:37;;;;;;;6.57;4.13;;;18.00;99.90;;;;;;4972690;28;20031;-72
2022/06/13 03:34:16;;;;;;;6.47;4.43;;;18.00;99.90;;;;;;4954755;28;20038;-73
2022/06/13 03:37:12;;;;;;;6.97;4.30;;;18.10;99.90;;;;;;4966412;28;20038;-74
2022/06/13 03:39:46;;;;;;;8.48;4.95;;;18.20;99.90;;;;;;4973347;28;20492;-73
2022/06/13 03:42:11;;;;;;;5.80;4.28;;;18.60;99.90;;;;;;4965982;28;20022;-74
2022/06/13 03:44:46;;;;;;;11.15;4.38;;;19.60;99.90;;;;;;4968988;28;20054;-73
2022/06/13 03:47:31;;;;;;;7.18;4.60;;;20.20;99.90;;;;;;4974906;28;20496;-74
2022/06/13 03:50:14;;;;;;;8.00;4.28;;;20.90;99.90;;;;;;4971461;28;20089;-72
2022/06/13 03:52:46;;;;;;;4.50;3.63;;;21.50;99.90;;;;;;4970796;28;20500;-74
2022/06/13 03:55:21;;;;;;;10.27;3.50;;;22.00;99.90;;;;;;4974990;28;20035;-73
2022/06/13 03:57:52;;;;;;;4.70;3.58;;;23.00;99.90;;;;;;4971102;28;20058;-74
2022/06/13 04:00:30;;;;;;;5.93;3.75;;;23.30;99.90;;;;;;4968685;28;20024;-74
2022/06/13 04:02:58;;;;;;;5.85;3.35;;;23.70;99.90;;;;;;4972795;28;20042;-73
2022/06/13 04:05:54;;;;;;;5.13;3.17;;;24.20;98.40;;;;;;4969595;28;20497;-70
2022/06/13 04:08:20;;;;;;;8.32;3.70;;;24.40;98.10;;;;;;4973114;28;20015;-73
2022/06/13 04:11:21;;;;;;;3.72;3.33;;;24.70;96.20;;;;;;4975114;28;20027;-73
2022/06/13 04:13:59;;;;;;;7.07;3.63;;;25.20;96.80;;;;;;4968762;28;20477;-76
2022/06/13 04:16:36;;;;;;;3.88;3.20;;;25.80;99.10;;;;;;4973243;28;20512;-74
2022/06/13 04:19:20;;;;;;;4.15;3.00;;;25.80;90.60;;;;;;4974467;28;20029;-75
2022/06/13 04:22:22;;;;;;;6.15;3.45;;;;;;;;;;4974782;28;20116;-72
2022/06/13 04:24:58;;;;;;;6.38;3.30;;;26.20;88.20;;;;;;4915504;29;20596;-78
2022/06/13 04:27:41;;;;;;;5.25;3.45;;;26.40;88.80;;;;;;4914861;29;20138;-80
2022/06/13 04:30:17;;;;;;;4.50;3.20;;;26.70;86.50;;;;;;4914962;29;20056;-78
2022/06/13 04:33:09;;;;;;;4.65;3.55;;;26.30;87.60;;;;;;4915091;29;20391;-78
2022/06/13 04:35:35;;;;;;;;;;;27.00;89.40;;;;;;4922818;29;20040;-77
2022/06/13 04:38:04;;;;;;;4.40;2.88;;;;;;;;;;4933989;29;19911;-75
2022/06/13 04:40:34;;;;;;;4.68;3.53;;;27.40;86.10;;;;;;4933314;29;20055;-72
2022/06/13 04:43:02;;;;;;;5.78;3.60;;;27.30;87.10;;;;;;4933618;29;20047;-77
2022/06/13 04:45:32;;;;;;;6.15;3.05;;;27.30;85.00;;;;;;4933080;29;20497;-77
2022/06/13 04:47:58;;;;;;;7.28;3.72;;;27.80;86.20;;;;;;4934027;29;20038;-77
2022/06/13 04:50:47;;;;;;;5.45;3.05;;;27.70;86.80;;;;;;4933225;29;20035;-77
2022/06/13 04:53:31;;;;;;;11.10;2.92;;;27.80;86.00;;;;;;4935796;29;20043;-71
2022/06/13 04:55:59;;;;;;;7.10;2.85;;;27.10;85.20;;;;;;4923653;29;20347;-77
2022/06/13 04:58:34;;;;;;;5.43;3.25;;;25.80;89.80;;;;;;4948207;28;20062;-73
2022/06/13 05:01:23;;;;;;;4.60;2.90;;;25.30;92.30;;;;;;4972685;28;20473;-77
2022/06/13 05:03:50;;;;;;;6.93;3.50;;;24.70;93.30;;;;;;4960349;28;20035;-76
2022/06/13 05:06:24;;;;;;;5.90;3.80;;;24.50;94.50;;;;;;4971243;28;20030;-77
2022/06/13 05:09:01;;;;;;;5.13;3.45;;;23.90;95.40;;;;;;4973270;28;20468;-77
2022/06/13 05:11:47;;;;;;;5.88;3.55;;;23.30;97.70;;;;;;4968774;28;20110;-76
2022/06/13 05:14:24;;;;;;;3.78;3.33;;;23.40;99.60;;;;;;4968637;28;20019;-72
2022/06/13 05:17:12;;;;;;;5.30;3.10;;;23.50;99.90;;;;;;4962306;28;20560;-76
2022/06/13 05:19:51;;;;;;;8.20;4.15;;;23.40;99.90;;;;;;4971903;28;20045;-75
2022/06/13 05:22:19;;;;;;;6.63;3.45;;;23.30;99.80;;;;;;4973481;28;20023;-77
2022/06/13 05:25:04;;;;;;;7.68;3.50;;;23.40;99.90;;;;;;4973805;28;20115;-75
2022/06/13 05:27:30;;;;;;;4.50;3.20;;;23.30;99.60;;;;;;4973498;28;20030;-76
2022/06/13 05:29:55;;;;;;;5.53;3.50;;;23.00;99.90;;;;;;4972554;28;20018;-71
2022/06/13 05:32:22;;;;;;;5.03;3.65;;;23.10;99.90;;;;;;4972757;28;20030;-76
2022/06/13 05:34:49;;;;;;;7.28;4.00;;;23.00;99.90;;;;;;4971804;28;20035;-76
2022/06/13 05:37:16;;;;;;;5.25;3.60;;;23.40;99.90;;;;;;4973612;28;20030;-74
2022/06/13 05:39:43;;;;;;;5.78;4.00;;;23.60;99.90;;;;;;4971219;28;20050;-77
2022/06/13 05:42:12;;;;;;;7.00;3.70;;;23.80;99.90;;;;;;4965547;28;20477;-76
2022/06/13 05:44:38;;;;;;;8.90;3.83;;;23.90;99.90;;;;;;4967481;28;20047;-77
2022/06/13 05:47:04;;;;;;;6.88;3.72;;;23.50;99.90;;;;;;4967974;28;20097;-72
2022/06/13 05:49:30;;;;;;;7.43;4.32;;;23.70;99.90;;;;;;4960992;28;20481;-77
2022/06/13 05:51:56;;;;;;;6.32;3.92;;;23.40;99.90;;;;;;4973326;28;20035;-76
2022/06/13 05:54:22;;;;;;;6.60;3.75;;;23.40;99.90;;;;;;4973261;28;20014;-78
2022/06/13 05:56:48;;;;;;;6.05;4.10;;;23.40;99.90;;;;;;4973482;28;20369;-77
2022/06/13 05:59:14;;;;;;;5.97;3.67;;;23.60;99.90;;;;;;4973188;28;20026;-75
2022/06/13 06:01:40;;;;;;;10.38;4.30;;;23.80;99.90;;;;;;4973371;28;20062;-77
2022/06/13 06:04:05;;;;;;;6.15;3.70;;;23.90;99.90;;;;;;4973333;28;20034;-77
2022/06/13 06:06:33;;;;;;;5.75;3.80;;;24.00;99.90;;;;;;4973456;28;20092;-78
2022/06/13 06:09:00;;;;;;;6.05;3.60;;;24.10;99.90;;;;;;4972375;28;20110;-78
2022/06/13 06:11:29;;;;;;;5.68;3.88;;;23.90;99.90;;;;;;4973085;28;20162;-77
2022/06/13 06:13:55;;;;;;;5.03;3.55;;;23.70;99.90;;;;;;4973127;28;20059;-76
2022/06/13 06:16:24;;;;;;;7.60;4.43;;;23.70;99.90;;;;;;4968821;28;20109;-74
2022/06/13 06:18:51;;;;;;;6.00;4.05;;;24.00;99.90;;;;;;4967979;28;20056;-78
2022/06/13 06:21:17;;;;;;;7.20;3.88;;;23.90;99.90;;;;;;4972073;28;20027;-78
2022/06/13 06:23:43;;;;;;;10.90;3.80;;;23.90;99.90;;;;;;4972794;28;20151;-77
2022/06/13 06:26:11;;;;;;;9.68;4.40;;;23.80;99.90;;;;;;4973047;28;20516;-77
2022/06/13 06:28:38;;;;;;;5.38;4.05;;;24.20;99.90;;;;;;4973106;28;20033;-77
2022/06/13 06:31:04;;;;;;;6.78;4.03;;;24.60;99.90;;;;;;4972837;28;20030;-77
2022/06/13 06:33:32;;;;;;;5.82;3.35;;;24.50;99.20;;;;;;4972731;28;20034;-76
2022/06/13 06:35:58;;;;;;;5.18;3.88;;;24.70;99.90;;;;;;4973157;28;20023;-78
2022/06/13 06:38:25;;;;;;;4.75;3.17;;;24.80;99.90;;;;;;4972497;28;20037;-76
2022/06/13 06:40:52;;;;;;;6.68;3.90;;;25.20;98.50;;;;;;4972973;28;20027;-77
2022/06/13 06:43:18;;;;;;;5.80;3.95;;;24.90;99.90;;;;;;4972207;28;20050;-77
2022/06/13 06:45:45;;;;;;;8.68;4.10;;;25.00;97.40;;;;;;4972795;28;20030;-77
2022/06/13 06:48:16;;;;;;;5.95;3.38;;;25.40;96.70;;;;;;4973111;28;20470;-77
2022/06/13 06:50:44;;;;;;;6.28;3.85;;;25.50;97.20;;;;;;4973003;28;20453;-77
2022/06/13 06:53:11;;;;;;;6.97;3.40;;;25.80;96.20;;;;;;4972693;28;20023;-76
2022/06/13 07:01:10;;;;;;;5.78;3.63;;;25.40;98.50;;;;;;4971411;28;20038;-76
2022/06/13 07:03:36;;;;;;;6.43;3.83;;;25.60;98.80;;;;;;4979460;28;20034;-77
2022/06/13 07:06:02;;;;;;;5.40;3.20;;;25.80;97.80;;;;;;4975496;28;20033;-78
2022/06/13 07:08:28;;;;;;;5.05;3.00;;;26.00;96.40;;;;;;4971942;28;20027;-77
2022/06/13 07:13:45;;;;;;;6.57;3.38;;;26.10;94.20;;;;;;4973349;28;20027;-78
2022/06/13 07:16:12;;;;;;;5.28;3.15;;;26.30;95.30;;;;;;4975810;28;20158;-78
2022/06/13 07:18:38;;;;;;;5.50;3.22;;;26.40;95.70;;;;;;4975675;28;20032;-77
2022/06/13 07:21:04;;;;;;;4.45;3.08;;;26.30;93.30;;;;;;4975577;28;20185;-77
2022/06/13 07:23:30;;;;;;;6.40;3.75;;;26.20;94.90;;;;;;4975634;28;20042;-76
2022/06/13 07:25:56;;;;;;;5.80;3.10;;;26.50;96.10;;;;;;4975875;28;20381;-77
2022/06/13 07:28:21;;;;;;;5.07;3.58;;;26.90;95.70;;;;;;4976023;28;20035;-76
2022/06/13 07:30:47;;;;;;;4.82;3.08;;;27.00;92.20;;;;;;4976088;28;20134;-77
2022/06/13 07:33:13;;;;;;;4.25;3.10;;;27.10;93.50;;;;;;4976130;28;20038;-77
2022/06/13 07:35:39;;;;;;;4.95;3.25;;;27.00;95.10;;;;;;4976419;28;20019;-75
2022/06/13 07:38:18;;;;;;;3.63;3.28;;;27.20;92.20;;;;;;4976149;28;20023;-78
2022/06/13 07:40:51;;;;;;;4.75;2.95;;;27.20;91.60;;;;;;4975780;28;20045;-78
2022/06/13 07:43:31;;;;;;;3.28;2.70;;;27.40;93.00;;;;;;4975129;28;20137;-78
2022/06/13 07:45:59;;;;;;;7.05;2.90;;;27.60;91.90;;;;;;4975750;28;20018;-77
2022/06/13 07:48:27;;;;;;;4.82;2.90;;;27.70;93.10;;;;;;4975821;28;20113;-77
2022/06/13 07:50:53;;;;;;;5.15;2.75;;;27.70;91.20;;;;;;4976024;28;20041;-78
2022/06/13 07:53:19;;;;;;;6.43;2.90;;;28.00;92.70;;;;;;4975545;28;20034;-79
2022/06/13 07:55:45;;;;;;;3.83;2.70;;;;;;;;;;4975547;28;20031;-78
2022/06/13 07:58:25;;;;;;;3.65;2.83;;;28.20;95.80;;;;;;4975355;28;20031;-78
2022/06/13 08:00:51;;;;;;;6.45;3.05;;;;;;;;;;4975283;28;20754;-78
2022/06/13 08:03:27;;;;;;;6.03;3.08;;;28.30;90.20;;;;;;4975337;28;20585;-78
2022/06/13 08:05:53;;;;;;;5.43;3.00;;;28.40;85.80;;;;;;4975155;28;20865;-78
2022/06/13 08:08:19;;;;;;;5.93;2.97;;;28.10;83.90;;;;;;4975580;28;20066;-76
2022/06/13 08:10:47;;;;;;;4.72;3.17;;;28.20;84.30;;;;;;4975263;28;20038;-78
2022/06/13 08:13:14;;;;;;;3.67;2.78;;;28.30;87.60;;;;;;4975422;28;20054;-78
2022/06/13 08:15:41;;;;;;;6.82;3.13;;;28.70;87.70;;;;;;4975060;28;20062;-78
2022/06/13 08:18:07;;;;;;;3.00;2.35;;;28.60;82.60;;;;;;4975057;28;20015;-78
2022/06/13 08:20:34;;;;;;;5.53;2.50;;;28.90;87.00;;;;;;4975154;28;20041;-78
2022/06/13 08:23:00;;;;;;;4.85;2.50;;;28.80;87.50;;;;;;4974656;28;20035;-78
2022/06/13 08:25:30;;;;;;;5.45;2.95;;;28.80;85.30;;;;;;4974713;28;20497;-77
2022/06/13 08:27:58;;;;;;;7.03;2.80;;;28.50;83.50;;;;;;4974459;28;20023;-78
2022/06/13 08:30:26;;;;;;;4.70;2.88;;;28.50;85.60;;;;;;4974611;28;20034;-78
2022/06/13 08:32:52;;;;;;;4.40;3.15;;;28.60;83.40;;;;;;4975023;28;20031;-79
2022/06/13 08:35:17;;;;;;;4.22;2.92;;;28.70;88.40;;;;;;4974932;28;20465;-79
2022/06/13 08:37:43;;;;;;;4.90;2.90;;;28.70;87.00;;;;;;4974577;28;20433;-78
2022/06/13 08:40:11;;;;;;;4.03;2.88;;;28.80;82.90;;;;;;4974959;28;20033;-79
2022/06/13 08:43:17;;;;;;;4.95;2.58;;;28.80;86.40;;;;;;4989512;28;20034;-78
2022/06/13 08:45:48;;;;;;;4.47;2.90;;;29.00;84.70;;;;;;4953144;28;20050;-78
2022/06/13 08:48:41;;;;;;;5.05;2.47;;;29.10;87.50;;;;;;4953131;29;20043;-78
2022/06/13 08:51:10;;;;;;;6.07;3.03;;;28.80;81.00;;;;;;4914719;29;20503;-76
2022/06/13 08:53:43;;;;;;;4.60;3.00;;;29.00;80.80;;;;;;4933663;29;20051;-79
2022/06/13 08:56:13;;;;;;;7.38;3.03;;;28.90;82.60;;;;;;4933959;29;20032;-79
2022/06/13 08:58:55;;;;;;;4.22;2.65;;;29.00;81.50;;;;;;4933276;29;20039;-78
2022/06/13 09:01:37;;;;;;;4.63;2.63;;;29.20;82.90;;;;;;4933496;29;20031;-79
2022/06/13 09:04:06;;;;;;;5.75;2.88;;;29.20;79.70;;;;;;4933638;29;20055;-78
2022/06/13 09:06:32;;;;;;;6.30;2.53;;;29.00;80.00;;;;;;4933712;29;20028;-78
2022/06/13 09:09:16;;;;;;;3.50;2.60;;;28.80;82.40;;;;;;4933373;29;20072;-78
2022/06/13 09:11:54;;;;;;;4.10;3.05;;;28.80;82.40;;;;;;4933646;29;20031;-78
2022/06/13 09:14:35;;;;;;;4.50;2.85;;;29.00;84.50;;;;;;4917633;29;20044;-78
2022/06/13 09:17:12;;;;;;;5.30;2.92;;;28.70;83.40;;;;;;4933450;29;20402;-79
2022/06/13 09:19:42;;;;;;;3.40;2.70;;;28.80;82.80;;;;;;4932779;29;20086;-78
2022/06/13 09:22:13;;;;;;;3.97;2.45;;;28.70;82.50;;;;;;4926272;29;20067;-78
2022/06/13 09:24:54;;;;;;;8.23;2.60;;;29.00;84.00;;;;;;4926665;29;20565;-78
2022/06/13 09:27:25;;;;;;;4.68;2.72;;;;;;;;;;4940943;28;20066;-80
2022/06/13 09:30:09;;;;;;;8.50;3.00;;;29.20;83.20;;;;;;4988297;28;20033;-77
2022/06/13 09:32:55;;;;;;;3.10;2.10;;;29.30;84.40;;;;;;4973792;28;20397;-79
2022/06/13 09:35:25;;;;;;;5.80;2.70;;;29.40;90.70;;;;;;4973055;28;20062;-76
2022/06/13 09:37:59;;;;;;;4.47;2.22;;;29.40;86.30;;;;;;4972613;28;20043;-75
2022/06/13 09:40:32;;;;;;;3.67;2.15;;;;;;;;;;4972548;28;20031;-77
2022/06/13 09:43:10;;;;;;;3.28;2.33;;;29.20;93.40;;;;;;4972665;28;20379;-77
2022/06/13 09:45:35;;;;;;;4.15;2.55;;;29.20;91.70;;;;;;4973230;28;20118;-76
2022/06/13 09:48:23;;;;;;;3.30;2.63;;;29.10;92.60;;;;;;4973592;28;20137;-76
2022/06/13 09:50:56;;;;;;;3.67;2.97;;;29.30;92.10;;;;;;4972187;28;20041;-81
2022/06/13 09:53:22;;;;;;;4.60;2.10;;;29.20;92.00;;;;;;4973126;28;20037;-76
2022/06/13 09:56:04;;;;;;;4.07;2.50;;;29.30;90.90;;;;;;4973506;28;20023;-77
2022/06/13 09:58:37;;;;;;;5.97;2.75;;;;;;;;;;4973549;28;20480;-75
2022/06/13 10:01:15;;;;;;;7.50;2.60;;;29.70;95.20;;;;;;4972445;28;20038;-78
2022/06/13 10:03:59;;;;;;;6.65;3.13;;;29.50;89.40;;;;;;4972707;28;20039;-81
2022/06/13 10:06:32;;;;;;;9.82;2.40;;;29.00;78.50;;;;;;4973042;28;20035;-77
2022/06/13 10:09:19;;;;;;;3.55;2.33;;;29.10;81.00;;;;;;4972640;28;20113;-79
2022/06/13 10:12:13;;;;;;;4.18;2.40;;;29.20;77.70;;;;;;4959144;28;20063;-79
2022/06/13 10:14:49;;;;;;;3.10;2.08;;;29.20;77.10;;;;;;4973229;28;20066;-79
2022/06/13 10:17:40;;;;;;;2.70;2.30;;;29.10;76.10;;;;;;4973122;28;20035;-77
2022/06/13 10:20:15;;;;;;;5.75;2.35;;;29.30;78.00;;;;;;4967570;28;20042;-77
2022/06/13 10:23:18;;;;;;;2.65;2.22;;;29.40;80.40;;;;;;4972923;28;20085;-77
2022/06/13 10:26:11;;;;;;;2.67;2.15;;;29.20;73.60;;;;;;4972908;28;20034;-76
2022/06/13 10:29:14;;;;;;;3.00;2.20;;;29.40;74.60;;;;;;4972389;28;20035;-76
2022/06/13 10:31:45;;;;;;;3.33;2.42;;;29.40;78.10;;;;;;4972928;28;20050;-79
2022/06/13 10:34:20;;;;;;;;;;;29.30;76.70;;;;;;4973115;28;20118;-79
2022/06/13 10:37:17;;;;;;;3.65;2.42;;;29.40;77.80;;;;;;4972561;28;19909;-76
2022/06/13 10:39:44;;;;;;;5.50;2.40;;;29.70;78.40;;;;;;4951392;28;20039;-76
2022/06/13 10:42:16;;;;;;;3.60;2.00;;;29.80;79.50;;;;;;4970351;28;20034;-64
2022/06/13 10:44:42;;;;;;;3.25;2.42;;;29.70;71.20;;;;;;4970394;28;20138;-63
2022/06/13 10:47:29;;;;;;;2.72;2.40;;;29.70;70.10;;;;;;4970812;28;20131;-75
2022/06/13 10:50:00;;;;;;;3.17;2.50;;;29.90;73.80;;;;;;4974141;28;20115;-63
2022/06/13 10:52:32;;;;;;;7.10;3.03;;;30.20;75.10;;;;;;4974659;28;20034;-62
2022/06/13 10:55:03;;;;;;;;;;;30.20;75.40;;;;;;4975104;28;20035;-71
2022/06/13 10:57:57;;;;;;;5.47;3.08;;;30.00;74.30;;;;;;4974329;28;19910;-63
2022/06/13 11:00:26;;;;;;;3.72;2.55;;;29.90;72.10;;;;;;4917082;29;20532;-65
2022/06/13 11:03:08;;;;;;;4.45;2.50;;;29.60;72.10;;;;;;4915196;29;20076;-72
2022/06/13 11:06:07;;;;;;;4.72;2.67;;;29.60;74.90;;;;;;4905939;29;20075;-65
2022/06/13 11:08:34;;;;;;;2.40;2.20;;;29.40;75.30;;;;;;4916356;29;20052;-79
2022/06/13 11:11:03;;;;;;;2.88;2.25;;;29.60;74.00;;;;;;4916707;29;20040;-72
2022/06/13 11:13:36;;;;;;;5.38;2.67;;;29.50;73.80;;;;;;4899296;29;20432;-77
2022/06/13 11:24:46;;;;;;;3.25;2.50;;;30.40;75.10;;;;;;4916200;29;20056;-73
2022/06/13 11:27:41;;;;;;;4.57;2.42;;;30.10;75.40;;;;;;4916174;29;20091;-76
2022/06/13 11:30:25;;;;;;;3.78;2.60;;;29.70;75.20;;;;;;4916549;29;20407;-75
2022/06/13 11:33:02;;;;;;;4.95;2.83;;;30.00;74.50;;;;;;4916411;29;20047;-75
2022/06/13 11:35:40;;;;;;;3.50;2.47;;;30.10;74.10;;;;;;4916399;29;20035;-75
2022/06/13 11:38:20;;;;;;;3.30;2.58;;;30.10;73.60;;;;;;4963506;28;20070;-77
2022/06/13 11:41:18;;;;;;;3.85;2.38;;;30.30;76.50;;;;;;4962336;28;20106;-78
2022/06/13 11:44:00;;;;;;;3.03;2.63;;;30.40;75.20;;;;;;4975828;28;20046;-78
2022/06/13 11:46:53;;;;;;;5.20;2.50;;;30.60;75.20;;;;;;4976070;28;20097;-78
2022/06/13 11:49:30;;;;;;;3.30;2.53;;;30.40;74.50;;;;;;4963008;28;20023;-73
2022/06/13 11:53:35;;;;;;;5.28;2.78;;;30.40;72.70;;;;;;4975763;28;20400;-72
2022/06/13 11:55:01;;;;;;;5.63;3.17;;;30.50;75.40;;;;;;4967472;28;20105;-73
2022/06/13 11:57:42;;;;;;;3.40;2.58;;;30.50;75.60;;;;;;4975842;28;20015;-74
2022/06/13 12:00:20;;;;;;;5.43;2.60;;;30.30;73.30;;;;;;4975262;28;20046;-70
2022/06/13 12:02:49;;;;;;;4.03;2.83;;;30.10;73.80;;;;;;4975447;28;20030;-75
2022/06/13 12:05:21;;;;;;;4.55;3.10;;;29.90;74.10;;;;;;4974231;28;20038;-74
2022/06/13 12:07:54;;;;;;;5.00;2.90;;;29.90;74.90;;;;;;4975720;28;20031;-77
2022/06/13 12:10:26;;;;;;;5.07;2.90;;;30.00;77.60;;;;;;4975316;28;20062;-72
2022/06/13 12:12:52;;;;;;;3.78;2.40;;;30.10;77.20;;;;;;4974819;28;20075;-75
2022/06/13 12:15:20;;;;;;;6.75;2.95;;;30.40;76.30;;;;;;4975003;28;20480;-73
2022/06/13 12:17:52;;;;;;;3.38;2.65;;;30.60;75.60;;;;;;4975118;28;20027;-76
2022/06/13 12:20:29;;;;;;;3.70;2.50;;;30.10;71.10;;;;;;4974983;28;20134;-74
2022/06/13 12:23:03;;;;;;;4.13;2.90;;;29.90;73.60;;;;;;4975194;28;20501;-75
2022/06/13 12:25:33;;;;;;;3.35;2.63;;;29.90;74.60;;;;;;4974943;28;20389;-75
2022/06/13 12:28:09;;;;;;;4.57;2.80;;;30.00;75.80;;;;;;4975000;28;20030;-74
2022/06/13 12:31:07;;;;;;;3.60;2.38;;;29.70;75.40;;;;;;4974660;28;20031;-76
2022/06/13 12:33:37;;;;;;;3.22;2.42;;;29.70;74.00;;;;;;4974958;28;20109;-75
2022/06/13 12:36:25;;;;;;;3.67;2.80;;;29.60;74.30;;;;;;4974673;28;20037;-73
2022/06/13 12:39:09;;;;;;;3.17;2.75;;;29.50;76.00;;;;;;4974841;28;20030;-76
2022/06/13 12:41:45;;;;;;;4.65;3.17;;;29.50;78.10;;;;;;4975246;28;20366;-73
2022/06/13 12:44:26;;;;;;;2.70;2.50;;;29.90;80.90;;;;;;4961285;28;20039;-75
2022/06/13 12:47:18;;;;;;;4.60;3.10;;;30.10;78.90;;;;;;4974724;28;20145;-76
2022/06/13 12:50:14;;;;;;;3.42;2.78;;;30.00;76.20;;;;;;4975158;28;20038;-75
2022/06/13 12:53:12;;;;;;;3.60;2.63;;;30.00;75.40;;;;;;4961319;28;20027;-71
2022/06/13 12:55:53;;;;;;;5.47;3.45;;;29.70;76.70;;;;;;4972125;28;20054;-73
2022/06/13 12:58:19;;;;;;;4.80;2.85;;;29.90;76.50;;;;;;4971683;28;20049;-72
2022/06/13 13:01:01;;;;;;;4.20;2.80;;;30.10;75.90;;;;;;4971997;28;20039;-73
2022/06/13 13:03:45;;;;;;;5.05;2.50;;;30.20;76.20;;;;;;4971947;28;20046;-75
2022/06/13 13:06:35;;;;;;;4.18;3.03;;;30.20;75.20;;;;;;4971561;28;20126;-77
2022/06/13 13:09:34;;;;;;;4.13;2.90;;;30.40;79.00;;;;;;4955618;28;20042;-77
2022/06/13 13:12:36;;;;;;;6.43;3.28;;;30.20;77.00;;;;;;4959679;28;20066;-76
2022/06/13 13:15:15;;;;;;;5.25;2.47;;;30.00;73.60;;;;;;4959892;28;20517;-77
2022/06/13 13:18:22;;;;;;;3.88;2.88;;;30.20;74.90;;;;;;4969484;28;20035;-74
2022/06/13 13:20:53;;;;;;;3.97;2.88;;;30.30;78.00;;;;;;4933272;29;20059;-76
2022/06/13 13:23:26;;;;;;;5.03;3.40;;;30.00;75.70;;;;;;4929701;29;20619;-72
2022/06/13 13:26:03;;;;;;;3.47;2.53;;;29.80;74.60;;;;;;4923881;29;20046;-77
2022/06/13 13:28:50;;;;;;;4.80;2.85;;;30.10;75.40;;;;;;4914550;29;20044;-74
2022/06/13 13:31:38;;;;;;;9.15;3.35;;;30.10;74.60;;;;;;4919638;29;20044;-75
2022/06/13 13:34:16;;;;;;;10.30;3.42;;;30.00;75.80;;;;;;4895695;29;20033;-75
2022/06/13 13:36:43;;;;;;;4.32;3.03;;;29.80;75.50;;;;;;4894830;29;20083;-82
2022/06/13 13:39:16;;;;;;;4.65;3.08;;;29.80;76.50;;;;;;4895335;29;20057;-82
2022/06/13 13:42:00;;;;;;;4.13;3.08;;;30.20;78.50;;;;;;4895520;29;20029;-79
2022/06/13 13:44:43;;;;;;;4.30;2.92;;;30.10;74.70;;;;;;4893730;29;20115;-77
2022/06/13 13:47:20;;;;;;;8.70;3.05;;;30.10;76.30;;;;;;4893085;29;20468;-74
2022/06/13 13:49:58;;;;;;;4.75;3.00;;;30.10;79.70;;;;;;4894911;29;20048;-78